Time;durP1;ratioP1;P1;durP2;ratioP2;P2;SDS_P1;SDS_P2;PMS_P1;PMS_P2;Temp;Humidity;BMP_temperature;BMP_pressure;BME280_temperature;BME280_humidity;BME280_pressure;Samples;Min_cycle;Max_cycle;Signal;HPM_P1;HPM_P2
2022/07/04 00:39:50;;;;;;;;;;;;;;;;;;;;;
2022/07/04 00:43:27;;;;;;;19.60;17.50;;;11.40;99.90;;;;;;4676618;30;20108;-81
2022/07/04 00:51:09;;;;;;;18.20;16.40;;;11.30;99.90;;;;;;4651694;30;20078;-82
2022/07/04 00:54:26;;;;;;;18.13;16.33;;;11.20;99.90;;;;;;4662101;30;20050;-82
2022/07/04 00:57:53;;;;;;;18.27;16.50;;;11.20;99.90;;;;;;4636953;30;20054;-82
2022/07/04 01:05:06;;;;;;;20.13;16.10;;;11.20;99.90;;;;;;4614469;31;20051;-82
2022/07/04 01:08:57;;;;;;;22.90;18.23;;;11.20;99.90;;;;;;4597882;31;20147;-82
2022/07/04 01:12:38;;;;;;;21.55;19.13;;;11.20;99.90;;;;;;4583953;31;20108;-81
2022/07/04 01:20:33;;;;;;;17.65;15.63;;;11.20;99.90;;;;;;4560438;31;20067;-81
2022/07/04 01:36:00;;;;;;;20.77;16.10;;;11.00;99.90;;;;;;4613393;31;20083;-82
2022/07/04 01:40:12;;;;;;;;;;;;;;;;;;;;;
2022/07/04 01:44:02;;;;;;;17.73;16.13;;;10.90;99.90;;;;;;4600003;31;20163;-81
2022/07/04 01:48:02;;;;;;;19.88;17.67;;;10.90;99.90;;;;;;4584313;31;20045;-82
2022/07/04 01:51:42;;;;;;;24.90;19.63;;;10.90;99.90;;;;;;4527082;31;20483;-81
2022/07/04 01:55:11;;;;;;;30.25;21.25;;;10.80;99.90;;;;;;4536432;31;20573;-82
2022/07/04 01:58:39;;;;;;;28.17;25.27;;;10.90;99.90;;;;;;4521379;31;20050;-82
2022/07/04 02:02:29;;;;;;;;;;;;;;;;;;;;;
2022/07/04 02:38:39;;;;;;;;;;;;;;;;;;;;;
2022/07/04 02:42:05;;;;;;;21.40;19.05;;;10.80;99.90;;;;;;6155898;23;20057;-81
2022/07/04 02:45:20;;;;;;;33.55;24.98;;;10.80;99.90;;;;;;6057028;23;20022;-81
2022/07/04 02:48:21;;;;;;;22.17;19.15;;;10.70;99.90;;;;;;6247286;22;20011;-81
2022/07/04 02:51:23;;;;;;;23.55;20.05;;;10.80;99.90;;;;;;6274068;22;20011;-81
2022/07/04 02:58:29;;;;;;;23.02;19.88;;;10.80;99.90;;;;;;6074858;23;20399;-81
2022/07/04 03:01:12;;;;;;;;;;;;;;;;;;;;;
2022/07/04 03:04:22;;;;;;;41.30;32.30;;;10.80;99.90;;;;;;6193585;23;20479;-81
2022/07/04 03:07:25;;;;;;;;;;;;;;;;;;;;;
2022/07/04 03:10:45;;;;;;;42.22;34.65;;;10.80;99.90;;;;;;6282259;22;20045;-81
2022/07/04 03:20:54;;;;;;;48.60;35.88;;;11.00;99.90;;;;;;6076384;23;20030;-81
2022/07/04 03:24:14;;;;;;;;;;;;;;;;;;;;;
2022/07/04 03:27:10;;;;;;;37.10;32.87;;;10.90;99.90;;;;;;6095733;23;20020;-82
2022/07/04 03:30:25;;;;;;;44.60;34.30;;;10.90;99.90;;;;;;6232900;22;20238;-81
2022/07/04 03:33:51;;;;;;;;;;;;;;;;;;;;;
2022/07/04 03:36:51;;;;;;;44.70;32.42;;;10.90;99.90;;;;;;6186650;23;20466;-80
2022/07/04 03:43:47;;;;;;;;;;;;;;;;;;;;;
2022/07/04 03:47:00;;;;;;;;;;;;;;;;;;;;;
2022/07/04 03:50:03;;;;;;;25.80;23.00;;;11.00;99.90;;;;;;6127926;23;20352;-81
2022/07/04 03:53:13;;;;;;;37.78;25.02;;;11.10;99.90;;;;;;6168223;23;20050;-80
2022/07/04 03:56:17;;;;;;;21.85;19.67;;;11.10;99.90;;;;;;6216271;23;20013;-80
2022/07/04 04:10:42;;;;;;;19.25;17.33;;;11.30;99.90;;;;;;6179724;23;20415;-80
2022/07/04 04:13:43;;;;;;;;;;;;;;;;;;;;;
2022/07/04 04:16:58;;;;;;;26.48;21.70;;;11.30;99.90;;;;;;6116082;23;20021;-81
2022/07/04 04:19:56;;;;;;;27.25;23.50;;;11.50;99.90;;;;;;6190777;23;20373;-80
2022/07/04 04:25:57;;;;;;;26.38;21.55;;;11.60;99.90;;;;;;6197550;23;20046;-80
2022/07/04 04:28:57;;;;;;;22.38;20.15;;;11.70;99.90;;;;;;6184893;23;20008;-81
2022/07/04 04:35:21;;;;;;;26.73;21.92;;;11.90;99.90;;;;;;6244851;23;20016;-80
2022/07/04 04:38:06;;;;;;;35.72;24.50;;;12.10;99.90;;;;;;6196092;22;20015;-81
2022/07/04 04:40:53;;;;;;;21.60;18.07;;;12.30;99.90;;;;;;6256825;22;20011;-81
2022/07/04 04:47:05;;;;;;;25.42;20.20;;;12.60;99.90;;;;;;6300310;22;20061;-81
2022/07/04 04:50:18;;;;;;;17.13;15.38;;;12.90;99.90;;;;;;6287581;22;20441;-80
2022/07/04 04:53:30;;;;;;;17.42;15.50;;;13.00;99.90;;;;;;6258106;22;20019;-80
2022/07/04 04:56:55;;;;;;;;;;;;;;;;;;;;;
2022/07/04 04:59:50;;;;;;;14.73;13.07;;;13.40;99.90;;;;;;6243902;23;20087;-80
2022/07/04 05:07:00;;;;;;;12.43;11.23;;;13.90;99.90;;;;;;6309632;22;20018;-82
2022/07/04 05:10:08;;;;;;;;;;;;;;;;;;;;;
2022/07/04 05:29:54;;;;;;;12.95;7.75;;;15.50;99.90;;;;;;6220003;22;20020;-82
2022/07/04 05:37:37;;;;;;;;;;;;;;;;;;;;;
2022/07/04 05:43:12;;;;;;;9.52;7.40;;;15.80;99.90;;;;;;6272023;22;20016;-85
2022/07/04 05:45:38;;;;;;;8.13;6.93;;;16.00;99.90;;;;;;6222733;22;20248;-82
2022/07/04 05:48:03;;;;;;;7.68;6.60;;;16.10;99.90;;;;;;6222148;22;20011;-82
2022/07/04 05:50:29;;;;;;;7.82;6.18;;;16.30;99.90;;;;;;6222752;22;20077;-82
2022/07/04 05:52:55;;;;;;;10.27;6.70;;;16.40;99.90;;;;;;6222625;22;20447;-82
2022/07/04 05:55:20;;;;;;;8.20;6.90;;;16.40;99.90;;;;;;6222321;22;20347;-82
2022/07/04 05:57:46;;;;;;;9.52;6.47;;;16.50;99.90;;;;;;6220568;22;20033;-83
2022/07/04 06:00:12;;;;;;;8.30;7.20;;;16.40;99.90;;;;;;6222140;22;20343;-84
2022/07/04 06:02:37;;;;;;;8.70;7.15;;;16.30;99.90;;;;;;6247241;22;20094;-82
2022/07/04 06:05:03;;;;;;;8.52;7.65;;;16.20;99.90;;;;;;6221723;22;20462;-82
2022/07/04 06:07:29;;;;;;;9.98;7.65;;;16.10;99.90;;;;;;6222125;22;20008;-82
2022/07/04 06:09:55;;;;;;;11.48;8.57;;;16.10;99.90;;;;;;6221590;22;20049;-82
2022/07/04 06:12:20;;;;;;;12.20;8.27;;;16.10;99.90;;;;;;6222299;22;20451;-82
2022/07/04 06:14:46;;;;;;;12.13;8.00;;;16.10;99.90;;;;;;6222559;22;20090;-82
2022/07/04 06:17:11;;;;;;;10.00;8.82;;;16.30;99.90;;;;;;6222000;22;20015;-82
2022/07/04 06:19:37;;;;;;;10.90;7.50;;;16.30;99.90;;;;;;6221764;22;20440;-82
2022/07/04 06:22:03;;;;;;;8.82;7.05;;;16.30;99.90;;;;;;6221484;22;20043;-82
2022/07/04 06:24:29;;;;;;;10.45;7.97;;;16.30;99.90;;;;;;6221637;22;20344;-81
2022/07/04 06:26:54;;;;;;;8.75;7.15;;;16.30;99.90;;;;;;6222126;22;20094;-82
2022/07/04 06:29:20;;;;;;;12.35;7.85;;;16.30;99.90;;;;;;6246736;22;20081;-85
2022/07/04 06:31:46;;;;;;;10.18;8.05;;;16.20;99.90;;;;;;6222023;22;20086;-84
2022/07/04 06:36:55;;;;;;;13.27;8.75;;;16.10;99.90;;;;;;6247518;22;20095;-84
2022/07/04 06:39:21;;;;;;;12.73;8.93;;;16.10;99.90;;;;;;6247294;22;20011;-84
2022/07/04 06:41:46;;;;;;;13.05;9.30;;;16.00;99.90;;;;;;6221953;22;20007;-84
2022/07/04 06:44:12;;;;;;;8.88;7.63;;;16.00;99.90;;;;;;6222432;22;20072;-85
2022/07/04 06:46:38;;;;;;;12.40;8.38;;;16.10;99.90;;;;;;6222196;22;20019;-84
2022/07/04 06:49:03;;;;;;;12.15;8.52;;;16.00;99.90;;;;;;6221516;22;20382;-84
2022/07/04 06:51:29;;;;;;;12.23;8.13;;;16.00;99.90;;;;;;6222148;22;20008;-84
2022/07/04 06:53:54;;;;;;;10.13;8.02;;;16.00;99.90;;;;;;6222438;22;20011;-84
2022/07/04 06:56:20;;;;;;;13.82;8.73;;;16.10;99.90;;;;;;6222520;22;20016;-84
2022/07/04 06:58:46;;;;;;;12.07;8.52;;;16.10;99.90;;;;;;6222255;22;20014;-85
2022/07/04 07:01:11;;;;;;;12.63;8.18;;;16.10;99.90;;;;;;6222045;22;20390;-85
2022/07/04 07:03:38;;;;;;;13.35;8.93;;;16.20;99.90;;;;;;6223607;22;20019;-85
2022/07/04 07:06:03;;;;;;;14.93;8.90;;;16.30;99.90;;;;;;6224200;22;20022;-83
2022/07/04 07:08:30;;;;;;;16.52;9.95;;;16.40;99.90;;;;;;6248955;22;20063;-83
2022/07/04 07:10:56;;;;;;;12.80;9.75;;;16.40;99.90;;;;;;6224018;22;20011;-84
2022/07/04 07:13:22;;;;;;;13.25;9.43;;;16.50;99.90;;;;;;6248832;22;20020;-84
2022/07/04 07:15:48;;;;;;;13.65;8.80;;;16.70;99.90;;;;;;6223836;22;20378;-84
2022/07/04 07:18:14;;;;;;;13.63;9.30;;;16.70;99.90;;;;;;6249373;22;20061;-85
2022/07/04 07:20:40;;;;;;;12.30;8.65;;;16.90;99.90;;;;;;6223854;22;20008;-85
2022/07/04 07:23:05;;;;;;;14.63;10.18;;;17.10;99.90;;;;;;6223759;22;20039;-85
2022/07/04 07:25:31;;;;;;;18.20;9.20;;;17.30;99.90;;;;;;6223745;22;20098;-84
2022/07/04 07:27:57;;;;;;;15.90;9.43;;;17.50;99.90;;;;;;6224067;22;20008;-84
2022/07/04 07:30:23;;;;;;;14.35;8.40;;;17.60;99.90;;;;;;6223778;22;20098;-83
2022/07/04 07:32:48;;;;;;;11.32;8.45;;;17.70;99.90;;;;;;6249036;22;20034;-84
2022/07/04 07:35:14;;;;;;;15.65;9.30;;;17.80;99.90;;;;;;6224197;22;20007;-84
2022/07/04 07:37:41;;;;;;;15.10;8.73;;;17.90;99.90;;;;;;6249096;22;20011;-84
2022/07/04 07:40:07;;;;;;;13.68;9.52;;;18.10;99.90;;;;;;6249380;22;20010;-84
2022/07/04 07:42:33;;;;;;;14.38;8.70;;;18.30;99.90;;;;;;6223494;22;20146;-83
2022/07/04 07:44:59;;;;;;;14.10;10.15;;;18.40;99.90;;;;;;6223741;22;20004;-82
2022/07/04 07:47:25;;;;;;;10.82;8.27;;;18.70;99.90;;;;;;6223999;22;20451;-84
2022/07/04 07:49:50;;;;;;;13.07;7.53;;;19.00;99.90;;;;;;6223692;22;20034;-85
2022/07/04 07:52:17;;;;;;;8.18;6.63;;;19.20;99.90;;;;;;6249122;22;20018;-85
2022/07/04 07:54:43;;;;;;;8.88;6.97;;;19.30;99.90;;;;;;6249288;22;20035;-85
2022/07/04 07:57:08;;;;;;;12.07;6.43;;;20.00;99.90;;;;;;6223415;22;20012;-85
2022/07/04 07:59:34;;;;;;;9.32;5.30;;;20.90;99.90;;;;;;6223754;22;20094;-86
2022/07/04 08:02:00;;;;;;;7.45;5.80;;;21.30;99.90;;;;;;6223566;22;20344;-84
2022/07/04 08:04:34;;;;;;;9.10;5.82;;;21.30;99.90;;;;;;6223887;22;20015;-84
2022/07/04 08:07:07;;;;;;;6.78;4.50;;;21.50;99.90;;;;;;6223691;22;20444;-85
2022/07/04 08:09:33;;;;;;;7.20;4.15;;;21.60;99.90;;;;;;6223647;22;20039;-85
2022/07/04 08:12:00;;;;;;;10.00;3.85;;;21.40;99.90;;;;;;6248656;22;20011;-85
2022/07/04 08:14:26;;;;;;;9.48;3.60;;;21.20;99.90;;;;;;6223452;22;20012;-86
2022/07/04 08:16:52;;;;;;;5.90;3.80;;;20.80;99.90;;;;;;6223510;22;20012;-85
2022/07/04 08:19:18;;;;;;;7.78;3.78;;;20.60;99.90;;;;;;6223703;22;20444;-86
2022/07/04 08:21:46;;;;;;;5.40;3.75;;;20.60;99.90;;;;;;6223850;22;20039;-85
2022/07/04 08:24:13;;;;;;;8.07;3.38;;;21.20;99.90;;;;;;6223455;22;20019;-85
2022/07/04 08:26:39;;;;;;;8.43;3.70;;;21.80;99.90;;;;;;6223565;22;20019;-85
2022/07/04 08:29:10;;;;;;;7.93;3.65;;;22.60;99.90;;;;;;6223695;22;20355;-84
2022/07/04 08:31:36;;;;;;;9.48;4.10;;;23.30;99.90;;;;;;6223508;22;20011;-85
2022/07/04 08:34:02;;;;;;;6.35;3.20;;;23.90;99.90;;;;;;6223469;22;20094;-85
2022/07/04 08:36:28;;;;;;;7.35;3.28;;;24.50;99.90;;;;;;6223150;22;20024;-85
2022/07/04 08:38:53;;;;;;;6.03;3.58;;;25.00;99.90;;;;;;6222817;22;20008;-85
2022/07/04 08:41:19;;;;;;;2.80;1.85;;;25.50;99.90;;;;;;6223347;22;20412;-85
2022/07/04 08:43:47;;;;;;;5.13;2.33;;;26.00;99.90;;;;;;6248813;22;20007;-85
2022/07/04 08:46:16;;;;;;;7.10;2.38;;;26.20;99.90;;;;;;6223398;22;20015;-85
2022/07/04 08:48:49;;;;;;;5.57;1.70;;;26.00;99.90;;;;;;6222692;22;20019;-85
2022/07/04 08:51:19;;;;;;;4.82;2.20;;;25.70;99.90;;;;;;6248446;22;20444;-85
2022/07/04 08:53:56;;;;;;;6.32;2.20;;;25.70;99.90;;;;;;6223224;22;20011;-84
2022/07/04 08:59:07;;;;;;;5.05;2.00;;;26.00;99.90;;;;;;6248384;22;20018;-84
2022/07/04 09:01:34;;;;;;;3.85;1.70;;;26.30;99.90;;;;;;6222706;22;20066;-85
2022/07/04 09:04:00;;;;;;;4.35;1.83;;;26.60;99.90;;;;;;6223332;22;20011;-84
2022/07/04 09:06:28;;;;;;;3.65;1.70;;;26.80;99.90;;;;;;6223361;22;20563;-85
2022/07/04 09:08:54;;;;;;;6.47;2.53;;;26.90;99.90;;;;;;6222925;22;20062;-84
2022/07/04 09:11:20;;;;;;;4.43;1.95;;;26.60;99.90;;;;;;6222934;22;20440;-85
2022/07/04 09:13:46;;;;;;;6.22;2.40;;;26.00;99.90;;;;;;6223267;22;20456;-85
2022/07/04 09:16:13;;;;;;;5.70;1.98;;;25.10;99.90;;;;;;6222776;22;20008;-84
2022/07/04 09:18:38;;;;;;;6.55;2.13;;;24.30;99.90;;;;;;6222833;22;20094;-85
2022/07/04 09:21:06;;;;;;;3.60;1.77;;;24.00;99.90;;;;;;6222843;22;20035;-84
2022/07/04 09:23:40;;;;;;;5.13;1.90;;;24.10;99.90;;;;;;6222954;22;20019;-84
2022/07/04 09:26:21;;;;;;;5.97;1.80;;;24.20;99.90;;;;;;6248198;22;20016;-85
2022/07/04 09:28:57;;;;;;;5.07;1.77;;;24.10;99.90;;;;;;6222636;22;20448;-84
2022/07/04 09:31:28;;;;;;;5.35;2.15;;;23.90;99.90;;;;;;6223052;22;20012;-84
2022/07/04 09:33:59;;;;;;;5.15;1.77;;;23.50;99.90;;;;;;6223061;22;20016;-85
2022/07/04 09:36:46;;;;;;;5.28;2.00;;;23.20;99.90;;;;;;6222865;22;20015;-84
2022/07/04 09:39:20;;;;;;;4.15;2.10;;;23.10;99.90;;;;;;6221050;22;20509;-85
2022/07/04 09:42:04;;;;;;;3.97;1.75;;;23.20;99.90;;;;;;6222643;22;20095;-84
2022/07/04 09:44:50;;;;;;;3.72;1.52;;;23.60;99.90;;;;;;6248172;22;20014;-84
2022/07/04 09:47:24;;;;;;;4.57;1.75;;;24.00;99.90;;;;;;6222807;22;20011;-85
2022/07/04 09:50:07;;;;;;;3.55;1.40;;;24.30;99.90;;;;;;6247421;22;20440;-84
2022/07/04 09:52:54;;;;;;;5.13;1.40;;;24.60;99.90;;;;;;6247918;22;20011;-85
2022/07/04 09:55:28;;;;;;;3.55;1.10;;;24.80;99.90;;;;;;6222806;22;20012;-83
2022/07/04 09:57:59;;;;;;;5.03;1.30;;;24.90;99.90;;;;;;6248140;22;20094;-83
2022/07/04 10:00:31;;;;;;;2.78;1.27;;;25.00;99.90;;;;;;6223005;22;20010;-84
2022/07/04 10:03:34;;;;;;;2.83;1.20;;;25.10;99.90;;;;;;6247789;22;20007;-84
2022/07/04 10:06:12;;;;;;;3.13;0.95;;;25.10;99.90;;;;;;6247902;22;20011;-85
2022/07/04 10:08:40;;;;;;;3.75;1.10;;;25.00;99.90;;;;;;6222561;22;20012;-85
2022/07/04 10:11:07;;;;;;;4.05;1.27;;;25.10;99.90;;;;;;6222623;22;20018;-85
2022/07/04 10:13:33;;;;;;;3.67;1.20;;;25.40;99.90;;;;;;6247899;22;20023;-84
2022/07/04 10:15:59;;;;;;;2.55;0.95;;;25.60;99.90;;;;;;6247527;22;20061;-84
2022/07/04 10:18:25;;;;;;;2.15;1.00;;;25.70;99.90;;;;;;6247568;22;20018;-84
2022/07/04 10:20:53;;;;;;;1.73;0.77;;;25.90;99.90;;;;;;6222549;22;20375;-85
2022/07/04 10:23:21;;;;;;;1.75;0.80;;;26.00;99.90;;;;;;6222298;22;20011;-85
2022/07/04 10:25:50;;;;;;;3.60;0.85;;;26.10;99.90;;;;;;6222240;22;20065;-85
2022/07/04 10:28:17;;;;;;;2.88;0.80;;;26.20;99.90;;;;;;6247514;22;20509;-85
2022/07/04 10:30:47;;;;;;;2.42;1.10;;;26.10;99.90;;;;;;6223016;22;20336;-85
2022/07/04 10:33:13;;;;;;;3.50;0.88;;;26.20;99.90;;;;;;6247497;22;20047;-85
2022/07/04 10:35:53;;;;;;;1.73;0.80;;;26.10;99.90;;;;;;6222466;22;20348;-85
2022/07/04 10:38:21;;;;;;;2.70;0.90;;;26.00;99.60;;;;;;6224117;22;20008;-84
2022/07/04 10:40:47;;;;;;;2.95;0.80;;;26.00;99.90;;;;;;6224091;22;20011;-84
2022/07/04 10:43:29;;;;;;;2.50;0.90;;;26.10;99.90;;;;;;6224723;22;20019;-84
2022/07/04 10:45:55;;;;;;;4.57;1.10;;;26.10;99.90;;;;;;6224619;22;20391;-84
2022/07/04 10:48:23;;;;;;;2.35;1.10;;;26.00;99.90;;;;;;6223779;22;20015;-84
2022/07/04 10:51:09;;;;;;;4.72;1.70;;;26.10;99.90;;;;;;6224495;22;20019;-85
2022/07/04 10:53:58;;;;;;;4.30;1.23;;;26.10;95.10;;;;;;6223702;22;20012;-85
2022/07/04 10:56:27;;;;;;;3.08;1.20;;;26.00;90.00;;;;;;6224200;22;20007;-84
2022/07/04 10:58:53;;;;;;;2.38;1.00;;;26.10;98.80;;;;;;6249642;22;20050;-84
2022/07/04 11:01:19;;;;;;;2.88;1.00;;;26.10;97.30;;;;;;6223882;22;20012;-86
2022/07/04 11:03:50;;;;;;;2.67;0.93;;;26.10;98.60;;;;;;6223470;22;20019;-84
2022/07/04 11:06:43;;;;;;;2.15;0.90;;;26.10;99.30;;;;;;6224498;22;20030;-84
2022/07/04 11:09:24;;;;;;;2.00;1.10;;;26.30;99.70;;;;;;6168662;22;20011;-83
2022/07/04 11:12:03;;;;;;;2.47;0.75;;;26.50;98.60;;;;;;6249347;22;20007;-84
2022/07/04 11:14:47;;;;;;;1.52;0.77;;;26.70;99.00;;;;;;6249623;22;20023;-85
2022/07/04 11:17:18;;;;;;;3.03;1.30;;;27.00;98.90;;;;;;6223690;22;20089;-84
2022/07/04 11:19:44;;;;;;;1.95;1.10;;;27.10;99.00;;;;;;6249374;22;20031;-84
2022/07/04 11:22:10;;;;;;;4.32;1.00;;;27.10;99.20;;;;;;6223915;22;20039;-84
2022/07/04 11:24:37;;;;;;;3.55;1.30;;;26.80;96.90;;;;;;6223767;22;20039;-85
2022/07/04 11:27:03;;;;;;;2.85;1.30;;;26.30;94.10;;;;;;6248885;22;20015;-84
2022/07/04 11:29:30;;;;;;;3.80;1.50;;;26.20;96.90;;;;;;6223754;22;20011;-84
2022/07/04 11:31:56;;;;;;;2.80;1.27;;;26.20;98.10;;;;;;6249519;22;20514;-85
2022/07/04 11:34:23;;;;;;;3.40;1.23;;;26.00;96.90;;;;;;6224036;22;20060;-83
2022/07/04 11:36:50;;;;;;;2.60;1.00;;;26.00;99.00;;;;;;6223900;22;20023;-84
2022/07/04 11:39:19;;;;;;;2.45;1.00;;;26.20;99.50;;;;;;6223017;22;20008;-84
2022/07/04 11:52:07;;;;;;;2.97;0.90;;;26.80;96.60;;;;;;6217945;22;20458;-83
2022/07/04 11:54:32;;;;;;;2.83;0.98;;;26.90;95.70;;;;;;6248568;22;20008;-84
2022/07/04 11:57:24;;;;;;;3.00;1.10;;;26.90;93.20;;;;;;6249130;22;20042;-83
2022/07/04 11:59:54;;;;;;;2.00;1.10;;;26.80;90.40;;;;;;6248785;22;20437;-83
2022/07/04 12:02:21;;;;;;;2.47;0.90;;;26.70;94.10;;;;;;6223659;22;20008;-83
2022/07/04 12:04:46;;;;;;;2.95;1.00;;;26.80;93.60;;;;;;6248509;22;20447;-82
2022/07/04 12:07:14;;;;;;;2.75;1.00;;;26.80;92.40;;;;;;6248489;22;20011;-83
2022/07/04 12:09:41;;;;;;;3.67;1.27;;;26.90;89.10;;;;;;6223144;22;20046;-83
2022/07/04 12:12:07;;;;;;;4.25;1.00;;;26.70;87.60;;;;;;6248426;22;20039;-84
2022/07/04 12:14:33;;;;;;;3.42;1.15;;;26.70;89.00;;;;;;6223719;22;20022;-83
2022/07/04 12:17:19;;;;;;;2.75;1.10;;;26.70;89.10;;;;;;6248871;22;20023;-84
2022/07/04 12:19:55;;;;;;;1.40;0.77;;;26.60;81.60;;;;;;6223168;22;20019;-84
2022/07/04 12:22:38;;;;;;;3.15;0.88;;;26.40;86.50;;;;;;6223464;22;20014;-83
2022/07/04 12:25:10;;;;;;;2.72;1.05;;;26.40;76.50;;;;;;6223576;22;20012;-84
2022/07/04 12:27:36;;;;;;;3.95;1.00;;;26.40;85.80;;;;;;6223269;22;20038;-85
2022/07/04 12:30:03;;;;;;;3.25;1.10;;;26.30;86.30;;;;;;6223486;22;20460;-84
2022/07/04 12:32:50;;;;;;;3.22;1.17;;;26.00;81.30;;;;;;6274155;22;20062;-83
2022/07/04 12:35:40;;;;;;;2.30;0.90;;;25.80;80.30;;;;;;6223205;22;20473;-83
2022/07/04 12:38:09;;;;;;;2.00;0.93;;;25.70;87.30;;;;;;6248601;22;20513;-83
2022/07/04 12:40:36;;;;;;;1.70;0.80;;;25.90;87.60;;;;;;6248600;22;20022;-84
2022/07/04 12:43:03;;;;;;;2.72;0.82;;;26.00;84.40;;;;;;6223461;22;20004;-83
2022/07/04 12:45:43;;;;;;;3.78;0.95;;;26.20;83.70;;;;;;6247976;22;20076;-84
2022/07/04 12:48:17;;;;;;;3.75;0.80;;;26.30;82.20;;;;;;6222643;22;20012;-83
2022/07/04 12:50:43;;;;;;;1.60;0.88;;;26.30;80.40;;;;;;6223636;22;20086;-83
2022/07/04 12:53:09;;;;;;;1.65;0.82;;;26.40;81.80;;;;;;6248398;22;20072;-83
2022/07/04 12:55:38;;;;;;;2.80;0.80;;;26.40;78.80;;;;;;6223291;22;20452;-84
2022/07/04 12:58:04;;;;;;;2.63;0.80;;;26.50;77.00;;;;;;6222967;22;20014;-83
2022/07/04 13:00:29;;;;;;;2.15;0.82;;;26.60;78.70;;;;;;6221798;22;20014;-83
2022/07/04 13:02:55;;;;;;;2.60;1.00;;;26.70;80.60;;;;;;6223083;22;20440;-83
2022/07/04 13:05:21;;;;;;;2.05;0.70;;;26.80;79.00;;;;;;6248485;22;20428;-84
2022/07/04 13:07:47;;;;;;;3.92;0.73;;;26.80;76.50;;;;;;6222723;22;20026;-85
2022/07/04 13:10:12;;;;;;;2.00;0.95;;;26.70;77.80;;;;;;6223128;22;20340;-83
2022/07/04 13:12:38;;;;;;;2.97;1.02;;;26.70;78.60;;;;;;6247846;22;20344;-85
2022/07/04 13:15:05;;;;;;;3.38;0.82;;;26.70;79.00;;;;;;6247898;22;20008;-84
2022/07/04 13:17:31;;;;;;;1.02;0.50;;;26.70;77.20;;;;;;6222900;22;20011;-83
2022/07/04 13:19:56;;;;;;;2.70;0.70;;;26.80;78.70;;;;;;6248196;22;20011;-84
2022/07/04 13:22:23;;;;;;;2.65;0.70;;;26.90;74.40;;;;;;6223056;22;20042;-83
2022/07/04 13:24:50;;;;;;;1.73;0.60;;;27.00;71.90;;;;;;6223055;22;20031;-84
2022/07/04 13:27:16;;;;;;;1.98;0.73;;;27.00;73.20;;;;;;6223015;22;20016;-84
2022/07/04 13:29:43;;;;;;;3.85;0.93;;;27.00;74.80;;;;;;6222244;22;20012;-83
2022/07/04 13:32:08;;;;;;;2.53;0.82;;;27.00;73.40;;;;;;6247910;22;20456;-84
2022/07/04 13:34:35;;;;;;;4.38;0.80;;;27.00;74.30;;;;;;6222841;22;20014;-83
2022/07/04 13:37:02;;;;;;;1.48;0.60;;;26.90;72.10;;;;;;6222751;22;20565;-84
2022/07/04 13:39:27;;;;;;;3.85;0.90;;;26.90;71.90;;;;;;6220827;22;20033;-84
2022/07/04 13:41:53;;;;;;;2.88;0.82;;;26.90;72.00;;;;;;6222703;22;20011;-82
2022/07/04 13:44:18;;;;;;;1.75;0.55;;;26.80;72.40;;;;;;6222939;22;20008;-84
2022/07/04 13:46:44;;;;;;;1.02;0.50;;;26.70;67.80;;;;;;6223128;22;20011;-84
2022/07/04 13:49:11;;;;;;;3.75;0.70;;;26.70;66.90;;;;;;6222205;22;20018;-84
2022/07/04 13:51:38;;;;;;;3.50;0.63;;;26.70;66.20;;;;;;6222458;22;20037;-84
2022/07/04 13:54:03;;;;;;;3.05;0.80;;;26.60;66.20;;;;;;6223011;22;20011;-85
2022/07/04 13:56:30;;;;;;;1.23;0.57;;;26.70;69.20;;;;;;6222649;22;20336;-84
2022/07/04 13:58:56;;;;;;;2.47;0.52;;;26.70;69.30;;;;;;6247797;22;20004;-84
2022/07/04 14:01:21;;;;;;;0.88;0.52;;;26.60;67.50;;;;;;6222592;22;20030;-84
2022/07/04 14:03:48;;;;;;;2.33;0.60;;;26.60;69.70;;;;;;6247457;22;20015;-84
2022/07/04 14:06:15;;;;;;;2.05;0.70;;;26.70;69.10;;;;;;6222777;22;20015;-84
2022/07/04 14:08:41;;;;;;;1.88;0.60;;;26.70;70.80;;;;;;6247854;22;20339;-84
2022/07/04 14:11:07;;;;;;;1.92;0.73;;;26.90;71.60;;;;;;6247893;22;20016;-84
2022/07/04 14:13:32;;;;;;;1.33;0.63;;;27.00;72.10;;;;;;6222240;22;20019;-84
2022/07/04 14:15:59;;;;;;;1.65;0.50;;;27.00;71.10;;;;;;6222204;22;20019;-85
2022/07/04 14:18:25;;;;;;;1.55;0.60;;;27.10;68.10;;;;;;6222365;22;20043;-84
2022/07/04 14:20:50;;;;;;;1.83;0.50;;;27.10;67.30;;;;;;6222557;22;20058;-84
2022/07/04 14:23:39;;;;;;;1.98;0.60;;;27.00;66.90;;;;;;6222613;22;20015;-84
2022/07/04 14:26:07;;;;;;;2.92;0.65;;;27.00;67.30;;;;;;6222799;22;20011;-84
2022/07/04 14:28:33;;;;;;;3.55;0.70;;;27.00;70.50;;;;;;6222002;22;20444;-84
2022/07/04 14:30:59;;;;;;;1.52;0.60;;;27.00;69.00;;;;;;6222336;22;20007;-83
2022/07/04 14:33:25;;;;;;;2.05;0.50;;;26.80;64.40;;;;;;6222592;22;20065;-84
2022/07/04 14:35:51;;;;;;;2.90;0.70;;;26.80;64.00;;;;;;6222357;22;20012;-84
2022/07/04 14:38:17;;;;;;;1.65;0.60;;;26.70;64.70;;;;;;6222270;22;20014;-84
2022/07/04 14:40:46;;;;;;;3.40;0.68;;;26.70;68.60;;;;;;6222411;22;20339;-85
2022/07/04 14:43:13;;;;;;;3.15;0.70;;;26.60;64.40;;;;;;6222099;22;20317;-84
2022/07/04 14:45:38;;;;;;;2.47;0.80;;;26.50;67.10;;;;;;6222507;22;20015;-83
2022/07/04 14:48:04;;;;;;;2.40;0.75;;;26.50;69.80;;;;;;6247587;22;20090;-84
2022/07/04 14:50:30;;;;;;;1.17;0.60;;;26.50;68.70;;;;;;6222473;22;20054;-84
2022/07/04 14:52:56;;;;;;;1.83;0.68;;;26.50;66.30;;;;;;6222126;22;20043;-84
2022/07/04 14:55:22;;;;;;;3.72;0.60;;;26.50;66.80;;;;;;6222403;22;20019;-84
2022/07/04 14:57:47;;;;;;;1.63;0.82;;;26.40;67.20;;;;;;6247554;22;20004;-85
2022/07/04 15:00:13;;;;;;;2.28;0.85;;;26.30;65.00;;;;;;6222654;22;20011;-84
2022/07/04 15:02:39;;;;;;;2.08;0.70;;;26.00;61.90;;;;;;6222449;22;20008;-84
2022/07/04 15:05:04;;;;;;;1.48;0.60;;;25.60;61.80;;;;;;6222543;22;20008;-84
2022/07/04 15:07:30;;;;;;;2.80;0.80;;;25.20;63.30;;;;;;6247273;22;20050;-84
2022/07/04 15:09:56;;;;;;;1.38;0.50;;;24.70;64.90;;;;;;6222378;22;20007;-84
2022/07/04 15:12:22;;;;;;;1.67;0.70;;;24.40;69.30;;;;;;6222458;22;20094;-84
2022/07/04 15:14:47;;;;;;;3.15;0.70;;;24.00;70.20;;;;;;6222348;22;20332;-84
2022/07/04 15:17:14;;;;;;;2.78;0.70;;;23.60;69.80;;;;;;6222388;22;20012;-83
2022/07/04 15:25:08;;;;;;;1.13;0.60;;;22.70;71.40;;;;;;6248980;22;20019;-84
2022/07/04 15:27:34;;;;;;;1.92;0.70;;;22.40;72.60;;;;;;6224226;22;20352;-83
2022/07/04 15:29:59;;;;;;;1.23;0.68;;;22.20;74.00;;;;;;6224183;22;20019;-84
2022/07/04 15:32:25;;;;;;;1.88;0.75;;;22.10;75.70;;;;;;6249633;22;20385;-83
2022/07/04 15:34:51;;;;;;;2.38;0.95;;;21.90;74.60;;;;;;6223851;22;20043;-83
2022/07/04 15:37:16;;;;;;;1.33;0.70;;;21.80;76.90;;;;;;6249111;22;20020;-84
2022/07/04 15:39:42;;;;;;;1.85;0.80;;;21.60;75.00;;;;;;6223884;22;20095;-85
2022/07/04 15:42:07;;;;;;;2.75;0.95;;;21.50;73.00;;;;;;6224342;22;20008;-84
2022/07/04 15:44:33;;;;;;;2.22;0.75;;;21.30;71.30;;;;;;6223977;22;20459;-84
2022/07/04 15:47:07;;;;;;;1.63;0.85;;;21.20;71.50;;;;;;6249488;22;20343;-84
2022/07/04 15:49:33;;;;;;;2.72;0.70;;;21.00;73.20;;;;;;6223421;22;20012;-84
2022/07/04 15:51:59;;;;;;;2.50;0.88;;;20.90;75.90;;;;;;6223498;22;20086;-83
2022/07/04 15:54:25;;;;;;;1.55;0.80;;;20.90;77.90;;;;;;6223981;22;20094;-84
2022/07/04 15:56:51;;;;;;;2.67;0.60;;;20.80;78.00;;;;;;6223374;22;20414;-85
2022/07/04 15:59:16;;;;;;;2.20;0.70;;;20.60;77.30;;;;;;6222180;22;20072;-83
2022/07/04 16:01:42;;;;;;;1.65;0.90;;;20.60;76.90;;;;;;6222495;22;20008;-83
2022/07/04 16:04:08;;;;;;;1.83;0.80;;;20.60;77.70;;;;;;6223390;22;20043;-82
2022/07/04 16:06:34;;;;;;;3.35;0.98;;;20.50;80.30;;;;;;6223612;22;20015;-82
2022/07/04 16:09:00;;;;;;;4.47;0.90;;;20.50;80.00;;;;;;6225143;22;20351;-82
2022/07/04 16:11:25;;;;;;;2.17;0.80;;;20.40;78.70;;;;;;6224513;22;20012;-82
2022/07/04 16:13:51;;;;;;;2.28;0.80;;;20.40;78.20;;;;;;6248677;22;20008;-81
2022/07/04 16:16:17;;;;;;;1.55;0.70;;;20.30;77.40;;;;;;6246392;22;20057;-83
2022/07/04 16:18:43;;;;;;;2.17;0.88;;;20.20;76.20;;;;;;6248367;22;20070;-83
2022/07/04 16:21:08;;;;;;;1.25;0.75;;;20.20;77.40;;;;;;6223246;22;20003;-85
2022/07/04 16:23:34;;;;;;;1.30;0.90;;;20.10;79.10;;;;;;6223095;22;20010;-85
2022/07/04 16:25:59;;;;;;;2.05;0.80;;;20.00;78.30;;;;;;6223756;22;20061;-82
2022/07/04 16:28:25;;;;;;;2.35;0.80;;;20.00;79.50;;;;;;6222821;22;20099;-82
2022/07/04 16:30:51;;;;;;;1.77;0.90;;;19.90;82.80;;;;;;6247086;22;20035;-83
2022/07/04 16:33:16;;;;;;;3.63;0.93;;;19.80;83.90;;;;;;6223202;22;20061;-83
2022/07/04 16:35:42;;;;;;;0.82;0.70;;;19.80;83.50;;;;;;6223170;22;20011;-84
2022/07/04 16:38:08;;;;;;;0.95;0.50;;;19.70;82.30;;;;;;6222799;22;20011;-82
2022/07/04 16:40:33;;;;;;;1.05;0.75;;;19.80;79.90;;;;;;6223247;22;20022;-83
2022/07/04 16:42:59;;;;;;;1.40;0.70;;;19.70;81.60;;;;;;6248502;22;20011;-82
2022/07/04 16:45:24;;;;;;;1.05;0.70;;;19.70;82.40;;;;;;6223264;22;20010;-83
2022/07/04 16:47:50;;;;;;;2.83;1.48;;;19.60;86.60;;;;;;6222713;22;20012;-82